createdAt,value
2023-03-04T00:00:20.698Z,100.00
2023-03-04T00:01:17.459Z,100.00
2023-03-04T00:02:14.499Z,100.00
2023-03-04T00:03:11.414Z,100.00
2023-03-04T00:04:08.321Z,100.00
2023-03-04T00:05:05.609Z,100.00
2023-03-04T00:06:06.796Z,100.00
2023-03-04T00:07:06.853Z,100.00
2023-03-04T00:08:05.983Z,100.00
2023-03-04T00:09:04.771Z,100.00
2023-03-04T00:10:01.640Z,100.00
2023-03-04T00:10:58.491Z,100.00
2023-03-04T00:11:55.331Z,100.00
2023-03-04T00:12:52.299Z,100.00
2023-03-04T00:13:52.687Z,100.00
2023-03-04T00:14:49.500Z,100.00
2023-03-04T00:15:46.264Z,100.00
2023-03-04T00:16:43.117Z,100.00
2023-03-04T00:17:40.065Z,100.00
2023-03-04T00:18:36.925Z,100.00
2023-03-04T00:19:35.133Z,100.00
2023-03-04T00:20:31.979Z,100.00
2023-03-04T00:21:28.799Z,100.00
2023-03-04T00:22:25.534Z,100.00
2023-03-04T00:23:22.336Z,100.00
2023-03-04T00:24:19.126Z,100.00
2023-03-04T00:25:16.483Z,100.00
2023-03-04T00:26:13.647Z,100.00
2023-03-04T00:27:10.489Z,100.00
2023-03-04T00:28:07.449Z,100.00
2023-03-04T00:29:04.254Z,100.00
2023-03-04T00:30:01.228Z,100.00
2023-03-04T00:30:58.100Z,100.00
2023-03-04T00:31:55.307Z,100.00
2023-03-04T00:32:52.134Z,100.00
2023-03-04T00:33:49.061Z,100.00
2023-03-04T00:34:46.159Z,100.00
2023-03-04T00:35:44.241Z,100.00
2023-03-04T00:36:41.293Z,100.00
2023-03-04T00:37:38.053Z,100.00
2023-03-04T00:38:34.828Z,100.00
2023-03-04T00:39:31.665Z,100.00
2023-03-04T00:40:28.489Z,100.00
2023-03-04T00:41:25.422Z,100.00
2023-03-04T00:42:22.245Z,100.00
2023-03-04T00:43:19.213Z,100.00
2023-03-04T00:44:16.275Z,100.00
2023-03-04T00:45:13.430Z,100.00
2023-03-04T00:46:10.380Z,100.00
2023-03-04T00:47:07.455Z,100.00
2023-03-04T00:48:04.430Z,100.00
2023-03-04T00:49:01.277Z,100.00
2023-03-04T00:49:58.081Z,100.00
2023-03-04T00:50:54.908Z,100.00
2023-03-04T00:51:52.217Z,100.00
2023-03-04T00:52:49.074Z,100.00
2023-03-04T00:53:45.937Z,100.00
2023-03-04T00:54:42.801Z,100.00
2023-03-04T00:55:41.736Z,100.00
2023-03-04T00:56:38.633Z,100.00
2023-03-04T00:57:35.669Z,100.00
2023-03-04T00:58:32.622Z,100.00
2023-03-04T00:59:29.433Z,100.00
2023-03-04T01:00:29.442Z,100.00
2023-03-04T01:01:28.851Z,100.00
2023-03-04T01:02:26.341Z,100.00
2023-03-04T01:03:24.639Z,100.00
2023-03-04T01:04:21.483Z,100.00
2023-03-04T01:05:18.714Z,100.00
2023-03-04T01:06:18.684Z,100.00
2023-03-04T01:07:15.469Z,100.00
2023-03-04T01:08:12.395Z,100.00
2023-03-04T01:09:09.519Z,100.00
2023-03-04T01:10:08.122Z,100.00
2023-03-04T01:11:08.325Z,100.00
2023-03-04T01:12:07.142Z,100.00
2023-03-04T01:13:03.997Z,100.00
2023-03-04T01:14:00.848Z,100.00
2023-03-04T01:14:57.656Z,100.00
2023-03-04T01:15:54.477Z,100.00
2023-03-04T01:16:51.450Z,100.00
2023-03-04T01:17:48.437Z,100.00
2023-03-04T01:18:47.252Z,100.00
2023-03-04T01:19:44.051Z,100.00
2023-03-04T01:20:40.867Z,100.00
2023-03-04T01:21:37.821Z,100.00
2023-03-04T01:22:34.713Z,100.00
2023-03-04T01:23:31.644Z,100.00
2023-03-04T01:24:30.002Z,100.00
2023-03-04T01:25:26.856Z,100.00
2023-03-04T01:26:23.561Z,100.00
2023-03-04T01:27:20.605Z,100.00
2023-03-04T01:28:17.415Z,100.00
2023-03-04T01:29:14.157Z,100.00
2023-03-04T01:30:11.708Z,100.00
2023-03-04T01:31:08.617Z,100.00
2023-03-04T01:32:05.731Z,100.00
2023-03-04T01:33:02.665Z,100.00
2023-03-04T01:33:59.558Z,100.00
2023-03-04T01:34:56.466Z,100.00
2023-03-04T01:35:53.357Z,100.00
2023-03-04T01:36:50.162Z,100.00
2023-03-04T01:37:46.982Z,100.00
2023-03-04T01:38:44.172Z,100.00
2023-03-04T01:39:41.093Z,100.00
2023-03-04T01:40:38.330Z,100.00
2023-03-04T01:41:35.268Z,100.00
2023-03-04T01:42:36.110Z,100.00
2023-03-04T01:43:36.860Z,100.00
2023-03-04T01:44:33.981Z,100.00
2023-03-04T01:45:33.701Z,100.00
2023-03-04T01:46:32.054Z,100.00
2023-03-04T01:47:31.679Z,100.00
2023-03-04T01:48:37.193Z,100.00
2023-03-04T01:49:34.104Z,100.00
2023-03-04T01:50:35.756Z,100.00
2023-03-04T01:51:32.583Z,100.00
2023-03-04T01:52:29.574Z,100.00
2023-03-04T01:53:28.217Z,100.00
2023-03-04T01:54:25.096Z,100.00
2023-03-04T01:55:24.062Z,100.00
2023-03-04T01:56:28.252Z,100.00
2023-03-04T01:57:26.607Z,100.00
2023-03-04T01:58:30.158Z,100.00
2023-03-04T01:59:31.566Z,100.00
2023-03-04T02:00:31.985Z,100.00
2023-03-04T02:01:31.825Z,100.00
2023-03-04T02:02:28.597Z,100.00
2023-03-04T02:03:25.810Z,100.00
2023-03-04T02:04:26.954Z,100.00
2023-03-04T02:05:25.063Z,100.00
2023-03-04T02:06:21.889Z,100.00
2023-03-04T02:07:18.724Z,100.00
2023-03-04T02:08:21.398Z,100.00
2023-03-04T02:09:19.595Z,100.00
2023-03-04T02:10:16.643Z,100.00
2023-03-04T02:11:13.338Z,100.00
2023-03-04T02:12:10.083Z,100.00
2023-03-04T02:13:07.468Z,100.00
2023-03-04T02:14:06.442Z,100.00
2023-03-04T02:15:03.713Z,100.00
2023-03-04T02:16:00.614Z,100.00
2023-03-04T02:16:57.601Z,100.00
2023-03-04T02:17:54.538Z,100.00
2023-03-04T02:18:51.895Z,100.00
2023-03-04T02:19:59.491Z,100.00
2023-03-04T02:21:09.517Z,100.00
2023-03-04T02:22:06.535Z,100.00
2023-03-04T02:23:26.723Z,100.00
2023-03-04T02:24:31.239Z,100.00
2023-03-04T02:25:39.183Z,100.00
2023-03-04T02:26:36.625Z,100.00
2023-03-04T02:27:33.474Z,100.00
2023-03-04T02:28:30.266Z,100.00
2023-03-04T02:29:28.884Z,100.00
2023-03-04T02:30:25.958Z,100.00
2023-03-04T02:31:25.461Z,100.00
2023-03-04T02:32:22.382Z,100.00
2023-03-04T02:33:20.084Z,100.00
2023-03-04T02:34:21.243Z,100.00
2023-03-04T02:35:18.866Z,100.00
2023-03-04T02:36:16.019Z,100.00
2023-03-04T02:37:13.976Z,100.00
2023-03-04T02:38:12.480Z,100.00
2023-03-04T02:39:34.180Z,100.00
2023-03-04T02:40:34.391Z,100.00
2023-03-04T02:41:31.701Z,100.00
2023-03-04T02:42:28.518Z,100.00
2023-03-04T02:43:25.254Z,100.00
2023-03-04T02:44:37.154Z,100.00
2023-03-04T02:45:39.616Z,100.00
2023-03-04T02:46:36.486Z,100.00
2023-03-04T02:47:33.249Z,100.00
2023-03-04T02:48:30.000Z,100.00
2023-03-04T02:49:29.864Z,100.00
2023-03-04T02:50:31.964Z,100.00
2023-03-04T02:51:28.797Z,100.00
2023-03-04T02:52:26.885Z,100.00
2023-03-04T02:53:25.593Z,100.00
2023-03-04T02:54:24.432Z,100.00
2023-03-04T02:55:21.174Z,100.00
2023-03-04T02:56:18.031Z,100.00
2023-03-04T02:57:15.670Z,100.00
2023-03-04T02:58:13.853Z,100.00
2023-03-04T02:59:10.623Z,100.00
2023-03-04T03:00:11.033Z,100.00
2023-03-04T03:01:08.774Z,100.00
2023-03-04T03:02:07.369Z,100.00
2023-03-04T03:03:04.563Z,100.00
2023-03-04T03:04:01.356Z,100.00
2023-03-04T03:04:58.375Z,100.00
2023-03-04T03:05:55.257Z,100.00
2023-03-04T03:06:52.042Z,100.00
2023-03-04T03:07:48.825Z,100.00
2023-03-04T03:08:45.540Z,100.00
2023-03-04T03:09:42.477Z,100.00
2023-03-04T03:10:39.338Z,100.00
2023-03-04T03:11:36.553Z,100.00
2023-03-04T03:12:33.346Z,100.00
2023-03-04T03:13:30.297Z,100.00
2023-03-04T03:14:27.060Z,100.00
2023-03-04T03:15:24.709Z,100.00
2023-03-04T03:16:21.644Z,100.00
2023-03-04T03:17:18.612Z,100.00
2023-03-04T03:18:15.548Z,100.00
2023-03-04T03:19:12.357Z,100.00
2023-03-04T03:20:11.610Z,100.00
2023-03-04T03:21:08.510Z,100.00
2023-03-04T03:22:06.467Z,100.00
2023-03-04T03:23:03.552Z,100.00
2023-03-04T03:24:00.375Z,100.00
2023-03-04T03:24:57.255Z,100.00
2023-03-04T03:25:54.014Z,100.00
2023-03-04T03:26:50.932Z,100.00
2023-03-04T03:27:47.763Z,100.00
2023-03-04T03:28:44.594Z,100.00
2023-03-04T03:29:41.457Z,100.00
2023-03-04T03:30:38.353Z,100.00
2023-03-04T03:31:35.236Z,100.00
2023-03-04T03:32:32.584Z,100.00
2023-03-04T03:33:31.538Z,100.00
2023-03-04T03:34:28.869Z,100.00
2023-03-04T03:35:25.719Z,100.00
2023-03-04T03:36:22.624Z,100.00
2023-03-04T03:37:19.462Z,100.00
2023-03-04T03:38:16.299Z,100.00
2023-03-04T03:39:13.129Z,100.00
2023-03-04T03:40:10.823Z,100.00
2023-03-04T03:41:07.618Z,100.00
2023-03-04T03:42:04.490Z,100.00
2023-03-04T03:43:01.327Z,100.00
2023-03-04T03:43:58.176Z,100.00
2023-03-04T03:44:56.054Z,100.00
2023-03-04T03:45:52.981Z,100.00
2023-03-04T03:46:49.836Z,100.00
2023-03-04T03:47:46.604Z,100.00
2023-03-04T03:48:43.406Z,100.00
2023-03-04T03:49:40.234Z,100.00
2023-03-04T03:50:37.261Z,100.00
2023-03-04T03:51:34.126Z,100.00
2023-03-04T03:52:30.928Z,100.00
2023-03-04T03:53:27.833Z,100.00
2023-03-04T03:54:24.619Z,100.00
2023-03-04T03:55:21.868Z,100.00
2023-03-04T03:56:18.673Z,100.00
2023-03-04T03:57:15.637Z,100.00
2023-03-04T03:58:12.536Z,100.00
2023-03-04T03:59:09.359Z,100.00
2023-03-04T04:00:07.833Z,100.00
2023-03-04T04:01:04.960Z,100.00
2023-03-04T04:02:01.928Z,100.00
2023-03-04T04:03:01.080Z,100.00
2023-03-04T04:03:58.000Z,100.00
2023-03-04T04:04:54.827Z,100.00
2023-03-04T04:05:51.637Z,100.00
2023-03-04T04:06:48.453Z,100.00
2023-03-04T04:07:45.393Z,100.00
2023-03-04T04:08:42.230Z,100.00
2023-03-04T04:09:39.085Z,100.00
2023-03-04T04:10:36.071Z,100.00
2023-03-04T04:11:33.049Z,100.00
2023-03-04T04:12:30.018Z,100.00
2023-03-04T04:13:27.049Z,100.00
2023-03-04T04:14:23.938Z,100.00
2023-03-04T04:15:20.860Z,100.00
2023-03-04T04:16:17.756Z,100.00
2023-03-04T04:17:14.590Z,100.00
2023-03-04T04:18:11.456Z,100.00
2023-03-04T04:19:10.466Z,100.00
2023-03-04T04:20:08.374Z,100.00
2023-03-04T04:21:05.512Z,100.00
2023-03-04T04:22:03.803Z,100.00
2023-03-04T04:23:00.741Z,100.00
2023-03-04T04:23:57.548Z,100.00
2023-03-04T04:24:54.569Z,100.00
2023-03-04T04:25:51.399Z,100.00
2023-03-04T04:26:48.283Z,100.00
2023-03-04T04:27:45.075Z,100.00
2023-03-04T04:28:41.991Z,100.00
2023-03-04T04:29:41.313Z,100.00
2023-03-04T04:30:38.761Z,100.00
2023-03-04T04:31:36.184Z,100.00
2023-03-04T04:32:33.116Z,100.00
2023-03-04T04:33:29.921Z,100.00
2023-03-04T04:34:26.881Z,100.00
2023-03-04T04:35:23.784Z,100.00
2023-03-04T04:36:20.744Z,100.00
2023-03-04T04:37:17.590Z,100.00
2023-03-04T04:38:14.414Z,100.00
2023-03-04T04:39:11.245Z,100.00
2023-03-04T04:40:08.695Z,100.00
2023-03-04T04:41:05.830Z,100.00
2023-03-04T04:42:03.968Z,100.00
2023-03-04T04:43:00.789Z,100.00
2023-03-04T04:43:57.869Z,100.00
2023-03-04T04:44:54.733Z,100.00
2023-03-04T04:45:51.981Z,100.00
2023-03-04T04:46:48.751Z,100.00
2023-03-04T04:47:45.587Z,100.00
2023-03-04T04:48:42.853Z,100.00
2023-03-04T04:49:39.684Z,100.00
2023-03-04T04:50:36.408Z,100.00
2023-03-04T04:51:34.767Z,100.00
2023-03-04T04:52:31.607Z,100.00
2023-03-04T04:53:28.469Z,100.00
2023-03-04T04:54:25.678Z,100.00
2023-03-04T04:55:22.519Z,100.00
2023-03-04T04:56:23.284Z,100.00
2023-03-04T04:57:20.079Z,100.00
2023-03-04T04:58:16.920Z,100.00
2023-03-04T04:59:13.828Z,100.00
2023-03-04T05:00:11.519Z,100.00
2023-03-04T05:01:08.706Z,100.00
2023-03-04T05:02:05.598Z,100.00
2023-03-04T05:03:02.485Z,100.00
2023-03-04T05:03:59.374Z,100.00
2023-03-04T05:04:56.253Z,100.00
2023-03-04T05:05:52.979Z,100.00
2023-03-04T05:06:49.844Z,100.00
2023-03-04T05:07:46.651Z,100.00
2023-03-04T05:08:43.414Z,100.00
2023-03-04T05:09:40.264Z,100.00
2023-03-04T05:10:37.049Z,100.00
2023-03-04T05:11:34.485Z,100.00
2023-03-04T05:12:31.429Z,100.00
2023-03-04T05:13:28.454Z,100.00
2023-03-04T05:14:25.360Z,100.00
2023-03-04T05:15:22.178Z,100.00
2023-03-04T05:16:19.435Z,100.00
2023-03-04T05:17:16.202Z,100.00
2023-03-04T05:18:13.469Z,100.00
2023-03-04T05:19:10.608Z,100.00
2023-03-04T05:20:08.868Z,100.00
2023-03-04T05:21:05.986Z,100.00
2023-03-04T05:22:02.749Z,100.00
2023-03-04T05:22:59.667Z,100.00
2023-03-04T05:23:56.408Z,100.00
2023-03-04T05:24:53.292Z,100.00
2023-03-04T05:25:51.102Z,100.00
2023-03-04T05:26:47.914Z,100.00
2023-03-04T05:27:44.695Z,100.00
2023-03-04T05:28:41.815Z,100.00
2023-03-04T05:29:38.638Z,100.00
2023-03-04T05:30:35.451Z,100.00
2023-03-04T05:31:32.273Z,100.00
2023-03-04T05:32:29.180Z,100.00
2023-03-04T05:33:26.561Z,100.00
2023-03-04T05:34:23.368Z,100.00
2023-03-04T05:35:20.602Z,100.00
2023-03-04T05:36:17.492Z,100.00
2023-03-04T05:37:14.263Z,100.00
2023-03-04T05:38:15.045Z,100.00
2023-03-04T05:39:12.413Z,100.00
2023-03-04T05:40:10.034Z,100.00
2023-03-04T05:41:08.269Z,100.00
2023-03-04T05:42:05.224Z,100.00
2023-03-04T05:43:02.262Z,100.00
2023-03-04T05:43:59.076Z,100.00
2023-03-04T05:44:56.028Z,100.00
2023-03-04T05:45:52.943Z,100.00
2023-03-04T05:46:49.780Z,100.00
2023-03-04T05:47:46.533Z,100.00
2023-03-04T05:48:44.373Z,100.00
2023-03-04T05:49:41.897Z,100.00
2023-03-04T05:50:38.652Z,100.00
2023-03-04T05:51:35.462Z,100.00
2023-03-04T05:52:32.324Z,100.00
2023-03-04T05:53:29.702Z,100.00
2023-03-04T05:54:26.580Z,100.00
2023-03-04T05:55:23.449Z,100.00
2023-03-04T05:56:21.258Z,100.00
2023-03-04T05:57:18.084Z,100.00
2023-03-04T05:58:15.858Z,100.00
2023-03-04T05:59:12.782Z,100.00
2023-03-04T06:00:13.135Z,100.00
2023-03-04T06:01:11.186Z,100.00
2023-03-04T06:02:08.507Z,100.00
2023-03-04T06:03:05.345Z,100.00
2023-03-04T06:04:02.322Z,100.00
2023-03-04T06:04:59.165Z,100.00
2023-03-04T06:05:56.357Z,100.00
2023-03-04T06:06:53.187Z,100.00
2023-03-04T06:07:49.958Z,100.00
2023-03-04T06:08:46.862Z,100.00
2023-03-04T06:09:45.254Z,100.00
2023-03-04T06:10:42.573Z,100.00
2023-03-04T06:11:39.997Z,100.00
2023-03-04T06:12:39.955Z,100.00
2023-03-04T06:13:36.758Z,100.00
2023-03-04T06:14:33.586Z,100.00
2023-03-04T06:15:30.908Z,100.00
2023-03-04T06:16:27.771Z,100.00
2023-03-04T06:17:24.605Z,100.00
2023-03-04T06:18:22.016Z,100.00
2023-03-04T06:19:18.925Z,100.00
2023-03-04T06:20:15.786Z,100.00
2023-03-04T06:21:12.862Z,100.00
2023-03-04T06:22:10.378Z,100.00
2023-03-04T06:23:07.287Z,100.00
2023-03-04T06:24:04.281Z,100.00
2023-03-04T06:25:01.580Z,100.00
2023-03-04T06:26:00.883Z,100.00
2023-03-04T06:26:57.695Z,100.00
2023-03-04T06:27:55.337Z,100.00
2023-03-04T06:28:52.281Z,100.00
2023-03-04T06:29:49.082Z,100.00
2023-03-04T06:30:45.957Z,100.00
2023-03-04T06:31:42.773Z,100.00
2023-03-04T06:32:40.442Z,100.00
2023-03-04T06:33:37.390Z,100.00
2023-03-04T06:34:34.430Z,100.00
2023-03-04T06:35:31.176Z,100.00
2023-03-04T06:36:28.165Z,100.00
2023-03-04T06:37:25.104Z,100.00
2023-03-04T06:38:27.257Z,100.00
2023-03-04T06:39:24.099Z,100.00
2023-03-04T06:40:21.030Z,100.00
2023-03-04T06:41:17.820Z,100.00
2023-03-04T06:42:15.397Z,100.00
2023-03-04T06:43:12.188Z,100.00
2023-03-04T06:44:09.044Z,100.00
2023-03-04T06:45:09.330Z,100.00
2023-03-04T06:46:10.215Z,100.00
2023-03-04T06:47:07.853Z,100.00
2023-03-04T06:48:04.857Z,100.00
2023-03-04T06:49:02.025Z,100.00
2023-03-04T06:49:58.899Z,100.00
2023-03-04T06:50:55.787Z,100.00
2023-03-04T06:51:55.299Z,100.00
2023-03-04T06:52:52.069Z,100.00
2023-03-04T06:53:51.696Z,100.00
2023-03-04T06:54:51.631Z,100.00
2023-03-04T06:55:49.835Z,100.00
2023-03-04T06:56:46.593Z,100.00
2023-03-04T06:57:43.508Z,100.00
2023-03-04T06:58:40.313Z,100.00
2023-03-04T06:59:39.910Z,100.00
2023-03-04T07:00:36.793Z,100.00
2023-03-04T07:01:35.174Z,100.00
2023-03-04T07:02:34.991Z,100.00
2023-03-04T07:03:31.854Z,100.00
2023-03-04T07:04:31.555Z,100.00
2023-03-04T07:05:28.601Z,100.00
2023-03-04T07:06:29.359Z,100.00
2023-03-04T07:07:27.405Z,100.00
2023-03-04T07:08:24.192Z,100.00
2023-03-04T07:09:23.958Z,100.00
2023-03-04T07:10:21.108Z,100.00
2023-03-04T07:11:24.489Z,100.00
2023-03-04T07:12:21.422Z,100.00
2023-03-04T07:13:18.259Z,100.00
2023-03-04T07:14:17.451Z,100.00
2023-03-04T07:15:15.806Z,100.00
2023-03-04T07:16:18.576Z,100.00
2023-03-04T07:17:16.490Z,100.00
2023-03-04T07:18:13.287Z,100.00
2023-03-04T07:19:10.220Z,100.00
2023-03-04T07:20:09.666Z,100.00
2023-03-04T07:21:12.312Z,100.00
2023-03-04T07:22:12.223Z,100.00
2023-03-04T07:23:10.241Z,100.00
2023-03-04T07:24:08.263Z,100.00
2023-03-04T07:25:06.467Z,100.00
2023-03-04T07:26:03.956Z,100.00
2023-03-04T07:27:00.747Z,100.00
2023-03-04T07:27:57.680Z,100.00
2023-03-04T07:28:55.864Z,100.00
2023-03-04T07:29:57.842Z,100.00
2023-03-04T07:30:54.712Z,100.00
2023-03-04T07:31:53.595Z,100.00
2023-03-04T07:32:50.673Z,100.00
2023-03-04T07:33:47.655Z,100.00
2023-03-04T07:34:44.497Z,100.00
2023-03-04T07:35:42.385Z,100.00
2023-03-04T07:36:41.091Z,100.00
2023-03-04T07:37:37.897Z,100.00
2023-03-04T07:38:37.462Z,100.00
2023-03-04T07:39:36.343Z,100.00
2023-03-04T07:40:33.284Z,100.00
2023-03-04T07:41:30.342Z,100.00
2023-03-04T07:42:27.220Z,100.00
2023-03-04T07:43:26.377Z,100.00
2023-03-04T07:44:23.177Z,100.00
2023-03-04T07:45:20.206Z,100.00
2023-03-04T07:46:17.814Z,100.00
2023-03-04T07:47:14.978Z,100.00
2023-03-04T07:48:11.837Z,100.00
2023-03-04T07:49:08.911Z,100.00
2023-03-04T07:50:06.336Z,100.00
2023-03-04T07:51:15.029Z,100.00
2023-03-04T07:52:14.671Z,100.00
2023-03-04T07:53:11.479Z,100.00
2023-03-04T07:54:08.382Z,100.00
2023-03-04T07:55:05.598Z,100.00
2023-03-04T07:56:06.853Z,100.00
2023-03-04T07:57:03.787Z,100.00
2023-03-04T07:58:00.756Z,100.00
2023-03-04T07:58:57.886Z,100.00
2023-03-04T07:59:57.216Z,100.00
2023-03-04T08:01:01.701Z,100.00
2023-03-04T08:01:58.531Z,100.00
2023-03-04T08:02:55.351Z,100.00
2023-03-04T08:03:52.827Z,100.00
2023-03-04T08:04:49.737Z,100.00
2023-03-04T08:05:48.630Z,100.00
2023-03-04T08:06:45.455Z,100.00
2023-03-04T08:07:42.450Z,100.00
2023-03-04T08:08:39.817Z,100.00
2023-03-04T08:09:39.956Z,100.00
2023-03-04T08:10:40.036Z,100.00
2023-03-04T08:11:38.543Z,100.00
2023-03-04T08:12:40.484Z,100.00
2023-03-04T08:13:37.582Z,100.00
2023-03-04T08:14:35.030Z,100.00
2023-03-04T08:15:32.979Z,100.00
2023-03-04T08:16:29.953Z,100.00
2023-03-04T08:17:26.896Z,100.00
2023-03-04T08:18:23.847Z,100.00
2023-03-04T08:19:21.968Z,100.00
2023-03-04T08:20:19.196Z,100.00
2023-03-04T08:21:30.423Z,100.00
2023-03-04T08:22:30.317Z,100.00
2023-03-04T08:23:30.272Z,100.00
2023-03-04T08:24:34.645Z,100.00
2023-03-04T08:25:31.841Z,100.00
2023-03-04T08:26:56.617Z,100.00
2023-03-04T08:27:53.445Z,100.00
2023-03-04T08:28:54.204Z,100.00
2023-03-04T08:29:53.634Z,100.00
2023-03-04T08:30:57.084Z,100.00
2023-03-04T08:31:58.429Z,100.00
2023-03-04T08:32:58.216Z,100.00
2023-03-04T08:34:09.408Z,100.00
2023-03-04T08:35:06.539Z,100.00
2023-03-04T08:36:12.891Z,100.00
2023-03-04T08:37:18.269Z,100.00
2023-03-04T08:38:15.133Z,100.00
2023-03-04T08:39:21.476Z,100.00
2023-03-04T08:40:22.001Z,100.00
2023-03-04T08:41:18.973Z,100.00
2023-03-04T08:42:16.115Z,100.00
2023-03-04T08:43:14.052Z,100.00
2023-03-04T08:44:14.538Z,100.00
2023-03-04T08:45:14.790Z,100.00
2023-03-04T08:46:15.059Z,100.00
2023-03-04T08:47:12.450Z,100.00
2023-03-04T08:48:12.328Z,100.00
2023-03-04T08:49:13.022Z,100.00
2023-03-04T08:50:10.865Z,100.00
2023-03-04T08:51:15.104Z,100.00
2023-03-04T08:52:12.031Z,100.00
2023-03-04T08:53:14.850Z,100.00
2023-03-04T08:54:11.747Z,100.00
2023-03-04T08:55:12.478Z,100.00
2023-03-04T08:56:10.422Z,100.00
2023-03-04T08:57:10.750Z,100.00
2023-03-04T08:58:09.338Z,100.00
2023-03-04T08:59:06.334Z,100.00
2023-03-04T09:00:07.567Z,100.00
2023-03-04T09:01:07.519Z,100.00
2023-03-04T09:02:04.546Z,100.00
2023-03-04T09:03:08.558Z,100.00
2023-03-04T09:04:07.977Z,100.00
2023-03-04T09:05:12.425Z,100.00
2023-03-04T09:06:14.406Z,100.00
2023-03-04T09:07:11.471Z,100.00
2023-03-04T09:08:11.624Z,100.00
2023-03-04T09:09:10.928Z,100.00
2023-03-04T09:10:08.861Z,100.00
2023-03-04T09:11:09.443Z,100.00
2023-03-04T09:12:11.956Z,100.00
2023-03-04T09:13:11.589Z,100.00
2023-03-04T09:14:10.827Z,100.00
2023-03-04T09:15:11.556Z,100.00
2023-03-04T09:16:13.975Z,100.00
2023-03-04T09:17:14.403Z,100.00
2023-03-04T09:18:15.667Z,100.00
2023-03-04T09:19:12.528Z,100.00
2023-03-04T09:20:12.406Z,100.00
2023-03-04T09:21:10.254Z,100.00
2023-03-04T09:22:07.202Z,100.00
2023-03-04T09:23:04.220Z,100.00
2023-03-04T09:24:05.304Z,100.00
2023-03-04T09:25:02.346Z,100.00
2023-03-04T09:26:00.359Z,100.00
2023-03-04T09:27:02.196Z,100.00
2023-03-04T09:27:58.953Z,100.00
2023-03-04T09:29:03.496Z,100.00
2023-03-04T09:30:00.507Z,100.00
2023-03-04T09:30:57.427Z,100.00
2023-03-04T09:31:57.094Z,100.00
2023-03-04T09:32:55.517Z,100.00
2023-03-04T09:34:00.841Z,100.00
2023-03-04T09:35:15.412Z,100.00
2023-03-04T09:36:18.387Z,100.00
2023-03-04T09:37:21.141Z,100.00
2023-03-04T09:38:34.156Z,100.00
2023-03-04T09:39:33.426Z,100.00
2023-03-04T09:41:30.180Z,100.00
2023-03-04T09:42:11.201Z,100.00
2023-03-04T09:45:09.794Z,100.00
2023-03-04T09:46:40.736Z,100.00
2023-03-04T09:47:39.879Z,100.00
2023-03-04T09:49:00.315Z,100.00
2023-03-04T09:50:18.231Z,100.00
2023-03-04T09:51:29.045Z,100.00
2023-03-04T09:52:40.396Z,100.00
2023-03-04T09:54:04.237Z,100.00
2023-03-04T09:55:19.034Z,100.00
2023-03-04T09:56:16.521Z,100.00
2023-03-04T09:58:17.172Z,100.00
2023-03-04T09:59:34.289Z,100.00
2023-03-04T10:00:46.337Z,100.00
2023-03-04T10:01:58.626Z,100.00
2023-03-04T10:03:13.878Z,100.00
2023-03-04T10:04:34.982Z,100.00
2023-03-04T10:05:51.016Z,100.00
2023-03-04T10:06:54.738Z,100.00
2023-03-04T10:08:17.738Z,100.00
2023-03-04T10:09:24.755Z,100.00
2023-03-04T10:10:47.629Z,100.00
2023-03-04T10:11:48.859Z,100.00
2023-03-04T10:13:03.722Z,100.00
2023-03-04T10:14:10.093Z,100.00
2023-03-04T10:15:28.628Z,100.00
2023-03-04T10:16:40.912Z,100.00
2023-03-04T10:18:25.599Z,100.00
2023-03-04T10:20:08.943Z,100.00
2023-03-04T10:21:38.747Z,100.00
2023-03-04T10:22:44.654Z,100.00
2023-03-04T10:23:59.769Z,100.00
2023-03-04T10:27:35.158Z,100.00
2023-03-04T10:28:39.276Z,100.00
2023-03-04T10:29:38.947Z,100.00
2023-03-04T10:33:23.444Z,100.00
2023-03-04T10:34:41.494Z,100.00
2023-03-04T10:36:20.398Z,100.00
2023-03-04T10:37:21.402Z,98.50
2023-03-04T10:38:52.679Z,98.54
2023-03-04T10:40:05.377Z,100.00
2023-03-04T10:41:21.408Z,99.41
2023-03-04T10:42:21.237Z,98.57
2023-03-04T10:43:23.491Z,99.03
2023-03-04T10:45:44.726Z,100.00
2023-03-04T10:46:59.871Z,100.00
2023-03-04T10:48:12.449Z,100.00
2023-03-04T10:49:19.978Z,100.00
2023-03-04T10:50:32.017Z,100.00
2023-03-04T10:51:36.220Z,100.00
2023-03-04T10:52:44.168Z,100.00
2023-03-04T10:53:55.064Z,100.00
2023-03-04T10:55:02.662Z,100.00
2023-03-04T10:56:01.792Z,100.00
2023-03-04T10:57:00.759Z,100.00
2023-03-04T10:58:07.745Z,100.00
2023-03-04T10:59:32.159Z,100.00
2023-03-04T11:00:34.961Z,100.00
2023-03-04T11:01:32.482Z,100.00
2023-03-04T11:02:39.048Z,98.22
2023-03-04T11:03:38.948Z,100.00
2023-03-04T11:04:38.455Z,99.72
2023-03-04T11:05:35.234Z,99.87
2023-03-04T11:06:32.684Z,97.88
2023-03-04T11:07:29.524Z,98.00
2023-03-04T11:08:26.283Z,97.50
2023-03-04T11:09:32.204Z,99.51
2023-03-04T11:10:40.390Z,100.00
2023-03-04T11:11:47.720Z,100.00
2023-03-04T11:12:56.715Z,99.30
2023-03-04T11:14:29.611Z,95.25
2023-03-04T11:15:31.441Z,95.13
2023-03-04T11:16:35.460Z,94.26
2023-03-04T11:17:59.303Z,96.55
2023-03-04T11:19:05.523Z,97.87
2023-03-04T11:20:26.972Z,93.79
2023-03-04T11:21:28.958Z,94.91
2023-03-04T11:22:31.518Z,96.54
2023-03-04T11:23:53.048Z,95.14
2023-03-04T11:25:14.276Z,94.68
2023-03-04T11:26:20.088Z,93.67
2023-03-04T11:27:29.664Z,94.10
2023-03-04T11:28:48.732Z,95.59
2023-03-04T11:30:01.344Z,93.80
2023-03-04T11:31:15.531Z,94.69
2023-03-04T11:32:33.160Z,99.63
2023-03-04T11:33:51.531Z,99.48
2023-03-04T11:35:07.131Z,98.99
2023-03-04T11:36:48.251Z,98.66
2023-03-04T11:38:04.860Z,100.00
2023-03-04T11:39:08.854Z,100.00
2023-03-04T11:40:16.832Z,97.69
2023-03-04T11:41:20.880Z,98.79
2023-03-04T11:42:30.720Z,98.64
2023-03-04T11:43:47.386Z,99.21
2023-03-04T11:44:44.530Z,100.00
2023-03-04T11:46:01.394Z,100.00
2023-03-04T11:47:05.597Z,100.00
2023-03-04T11:48:27.282Z,100.00
2023-03-04T11:49:50.617Z,100.00
2023-03-04T11:51:35.033Z,100.00
2023-03-04T11:52:47.370Z,100.00
2023-03-04T11:54:01.837Z,100.00
2023-03-04T11:55:07.989Z,100.00
2023-03-04T11:56:24.600Z,100.00
2023-03-04T11:57:57.585Z,100.00
2023-03-04T11:59:18.691Z,100.00
2023-03-04T12:00:45.798Z,100.00
2023-03-04T12:02:16.391Z,95.10
2023-03-04T12:03:50.716Z,89.93
2023-03-04T12:05:13.099Z,88.33
2023-03-04T12:06:28.599Z,88.23
2023-03-04T12:07:50.684Z,88.91
2023-03-04T12:08:53.170Z,90.19
2023-03-04T12:10:02.225Z,90.78
2023-03-04T12:11:13.800Z,90.44
2023-03-04T12:12:52.011Z,91.12
2023-03-04T12:14:27.763Z,91.62
2023-03-04T12:15:48.895Z,91.61
2023-03-04T12:17:26.861Z,91.95
2023-03-04T12:18:39.621Z,87.09
2023-03-04T12:19:42.020Z,87.43
2023-03-04T12:21:10.926Z,87.99
2023-03-04T12:22:32.033Z,90.30
2023-03-04T12:23:36.851Z,92.93
2023-03-04T12:24:55.262Z,93.65
2023-03-04T12:26:39.804Z,95.84
2023-03-04T12:28:20.859Z,93.89
2023-03-04T12:29:51.232Z,94.60
2023-03-04T12:30:56.579Z,95.16
2023-03-04T12:32:36.109Z,95.08
2023-03-04T12:33:51.195Z,92.33
2023-03-04T12:35:16.088Z,92.26
2023-03-04T12:36:30.914Z,88.92
2023-03-04T12:37:39.401Z,88.62
2023-03-04T12:38:45.169Z,90.96
2023-03-04T12:40:11.416Z,88.92
2023-03-04T12:41:31.780Z,86.67
2023-03-04T12:42:46.090Z,88.40
2023-03-04T12:43:50.219Z,90.20
2023-03-04T12:45:01.499Z,87.80
2023-03-04T12:46:44.615Z,87.43
2023-03-04T12:48:02.720Z,88.30
2023-03-04T12:49:14.344Z,91.96
2023-03-04T12:50:45.524Z,87.53
2023-03-04T12:51:44.884Z,88.70
2023-03-04T12:52:50.211Z,89.22
2023-03-04T12:54:15.926Z,87.29
2023-03-04T12:55:17.274Z,85.88
2023-03-04T12:56:31.249Z,83.35
2023-03-04T12:57:31.868Z,82.95
2023-03-04T12:58:38.571Z,83.43
2023-03-04T12:59:57.954Z,87.06